sensor_id;sensor_type;location;lat;lon;timestamp;pressure;altitude;pressure_sealevel;temperature;humidity
21594;BME280;10959;51.328;7.322;2023-02-19T00:00:06;98862.41;;;11.81;90.45
21594;BME280;10959;51.328;7.322;2023-02-19T00:02:33;98859.09;;;11.76;91.01
21594;BME280;10959;51.328;7.322;2023-02-19T00:04:59;98843.84;;;11.75;91.07
21594;BME280;10959;51.328;7.322;2023-02-19T00:07:27;98853.50;;;11.63;91.18
21594;BME280;10959;51.328;7.322;2023-02-19T00:09:54;98865.69;;;11.70;91.35
21594;BME280;10959;51.328;7.322;2023-02-19T00:12:21;98863.22;;;11.66;91.63
21594;BME280;10959;51.328;7.322;2023-02-19T00:14:47;98854.34;;;11.64;91.88
21594;BME280;10959;51.328;7.322;2023-02-19T00:17:13;98866.06;;;11.63;91.77
21594;BME280;10959;51.328;7.322;2023-02-19T00:19:40;98864.09;;;11.66;91.88
21594;BME280;10959;51.328;7.322;2023-02-19T00:22:06;98861.63;;;11.62;91.79
21594;BME280;10959;51.328;7.322;2023-02-19T00:24:34;98860.94;;;11.58;91.79
21594;BME280;10959;51.328;7.322;2023-02-19T00:27:01;98859.09;;;11.58;92.28
21594;BME280;10959;51.328;7.322;2023-02-19T00:29:27;98867.34;;;11.55;92.12
21594;BME280;10959;51.328;7.322;2023-02-19T00:31:54;98863.88;;;11.53;92.45
21594;BME280;10959;51.328;7.322;2023-02-19T00:34:20;98867.53;;;11.52;92.50
21594;BME280;10959;51.328;7.322;2023-02-19T00:36:47;98861.66;;;11.44;92.71
21594;BME280;10959;51.328;7.322;2023-02-19T00:39:15;98858.16;;;11.59;92.36
21594;BME280;10959;51.328;7.322;2023-02-19T00:41:44;98844.84;;;11.56;92.04
21594;BME280;10959;51.328;7.322;2023-02-19T00:44:11;98848.88;;;11.65;92.15
21594;BME280;10959;51.328;7.322;2023-02-19T00:46:39;98836.25;;;11.66;91.75
21594;BME280;10959;51.328;7.322;2023-02-19T00:49:07;98836.25;;;11.66;91.78
21594;BME280;10959;51.328;7.322;2023-02-19T00:51:35;98841.47;;;11.69;91.77
21594;BME280;10959;51.328;7.322;2023-02-19T00:54:03;98830.19;;;11.78;91.58
21594;BME280;10959;51.328;7.322;2023-02-19T00:56:30;98830.19;;;11.78;91.25
21594;BME280;10959;51.328;7.322;2023-02-19T00:58:58;98842.44;;;11.68;91.53
21594;BME280;10959;51.328;7.322;2023-02-19T01:01:24;98839.91;;;11.65;91.97
21594;BME280;10959;51.328;7.322;2023-02-19T01:03:51;98845.16;;;11.68;91.47
21594;BME280;10959;51.328;7.322;2023-02-19T01:06:18;98841.16;;;11.75;91.48
21594;BME280;10959;51.328;7.322;2023-02-19T01:08:46;98842.91;;;11.76;91.41
21594;BME280;10959;51.328;7.322;2023-02-19T01:11:13;98836.63;;;11.75;91.37
21594;BME280;10959;51.328;7.322;2023-02-19T01:13:40;98827.53;;;11.61;91.50
21594;BME280;10959;51.328;7.322;2023-02-19T01:16:11;98840.22;;;11.58;91.43
21594;BME280;10959;51.328;7.322;2023-02-19T01:18:38;98833.41;;;11.51;92.21
21594;BME280;10959;51.328;7.322;2023-02-19T01:21:07;98835.00;;;11.55;92.27
21594;BME280;10959;51.328;7.322;2023-02-19T01:23:34;98834.53;;;11.65;92.31
21594;BME280;10959;51.328;7.322;2023-02-19T01:26:03;98828.78;;;11.71;91.74
21594;BME280;10959;51.328;7.322;2023-02-19T01:28:30;98832.13;;;11.76;91.62
21594;BME280;10959;51.328;7.322;2023-02-19T01:31:00;98824.97;;;11.75;91.25
21594;BME280;10959;51.328;7.322;2023-02-19T01:33:28;98834.72;;;11.78;91.27
21594;BME280;10959;51.328;7.322;2023-02-19T01:35:54;98823.22;;;11.74;91.70
21594;BME280;10959;51.328;7.322;2023-02-19T01:38:21;98819.56;;;11.75;91.55
21594;BME280;10959;51.328;7.322;2023-02-19T01:40:53;98826.44;;;11.65;91.41
21594;BME280;10959;51.328;7.322;2023-02-19T01:43:20;98826.56;;;11.62;92.09
21594;BME280;10959;51.328;7.322;2023-02-19T01:45:46;98820.22;;;11.63;92.18
21594;BME280;10959;51.328;7.322;2023-02-19T01:48:17;98809.28;;;11.66;92.11
21594;BME280;10959;51.328;7.322;2023-02-19T01:50:50;98812.72;;;11.52;92.02
21594;BME280;10959;51.328;7.322;2023-02-19T01:53:21;98822.97;;;11.45;92.43
21594;BME280;10959;51.328;7.322;2023-02-19T01:55:52;98809.34;;;11.31;93.29
21594;BME280;10959;51.328;7.322;2023-02-19T01:58:21;98813.94;;;11.46;93.27
21594;BME280;10959;51.328;7.322;2023-02-19T02:00:48;98806.44;;;11.51;92.96
21594;BME280;10959;51.328;7.322;2023-02-19T02:03:16;98810.25;;;11.47;93.06
21594;BME280;10959;51.328;7.322;2023-02-19T02:05:49;98814.63;;;11.50;92.76
21594;BME280;10959;51.328;7.322;2023-02-19T02:08:19;98803.63;;;11.37;93.35
21594;BME280;10959;51.328;7.322;2023-02-19T02:11:03;98805.53;;;11.35;93.44
21594;BME280;10959;51.328;7.322;2023-02-19T02:13:32;98805.59;;;11.51;93.39
21594;BME280;10959;51.328;7.322;2023-02-19T02:16:08;98800.94;;;11.19;93.05
21594;BME280;10959;51.328;7.322;2023-02-19T02:18:48;98804.28;;;11.24;93.49
21594;BME280;10959;51.328;7.322;2023-02-19T02:21:46;98808.22;;;11.17;93.44
21594;BME280;10959;51.328;7.322;2023-02-19T02:24:27;98805.25;;;11.06;93.76
21594;BME280;10959;51.328;7.322;2023-02-19T02:27:12;98814.28;;;11.05;94.37
21594;BME280;10959;51.328;7.322;2023-02-19T02:30:08;98813.09;;;11.11;94.69
21594;BME280;10959;51.328;7.322;2023-02-19T02:32:39;98822.50;;;11.02;94.82
21594;BME280;10959;51.328;7.322;2023-02-19T02:35:19;98827.75;;;11.05;95.31
21594;BME280;10959;51.328;7.322;2023-02-19T02:37:48;98808.38;;;11.14;95.21
21594;BME280;10959;51.328;7.322;2023-02-19T02:40:16;98824.88;;;11.08;95.20
21594;BME280;10959;51.328;7.322;2023-02-19T02:42:43;98811.88;;;11.16;94.83
21594;BME280;10959;51.328;7.322;2023-02-19T02:45:26;98820.28;;;10.93;94.41
21594;BME280;10959;51.328;7.322;2023-02-19T02:48:22;98813.28;;;10.88;94.28
21594;BME280;10959;51.328;7.322;2023-02-19T02:50:52;98819.50;;;11.08;94.43
21594;BME280;10959;51.328;7.322;2023-02-19T02:53:23;98814.50;;;11.18;94.18
21594;BME280;10959;51.328;7.322;2023-02-19T02:56:11;98821.09;;;11.12;94.32
21594;BME280;10959;51.328;7.322;2023-02-19T02:58:39;98809.91;;;11.02;94.38
21594;BME280;10959;51.328;7.322;2023-02-19T03:01:10;98829.47;;;10.88;93.94
21594;BME280;10959;51.328;7.322;2023-02-19T03:04:00;98815.13;;;10.88;94.24
21594;BME280;10959;51.328;7.322;2023-02-19T03:06:30;98823.13;;;11.07;94.30
21594;BME280;10959;51.328;7.322;2023-02-19T03:09:01;98831.69;;;10.98;93.82
21594;BME280;10959;51.328;7.322;2023-02-19T03:11:31;98836.13;;;10.99;94.43
21594;BME280;10959;51.328;7.322;2023-02-19T03:14:21;98836.13;;;10.99;94.50
21594;BME280;10959;51.328;7.322;2023-02-19T03:17:10;98836.00;;;11.02;94.26
21594;BME280;10959;51.328;7.322;2023-02-19T03:19:59;98832.88;;;11.10;94.17
21594;BME280;10959;51.328;7.322;2023-02-19T03:22:30;98834.94;;;11.04;93.77
21594;BME280;10959;51.328;7.322;2023-02-19T03:25:00;98832.81;;;10.94;93.99
21594;BME280;10959;51.328;7.322;2023-02-19T03:27:47;98825.97;;;10.86;94.38
21594;BME280;10959;51.328;7.322;2023-02-19T03:30:17;98833.41;;;10.99;94.08
21594;BME280;10959;51.328;7.322;2023-02-19T03:32:50;98841.38;;;11.02;93.43
21594;BME280;10959;51.328;7.322;2023-02-19T03:35:20;98853.75;;;11.06;93.38
21594;BME280;10959;51.328;7.322;2023-02-19T03:37:53;98845.00;;;11.01;93.17
21594;BME280;10959;51.328;7.322;2023-02-19T03:40:26;98852.00;;;11.05;93.10
21594;BME280;10959;51.328;7.322;2023-02-19T03:42:59;98851.66;;;11.11;92.71
21594;BME280;10959;51.328;7.322;2023-02-19T03:45:36;98848.97;;;11.11;92.32
21594;BME280;10959;51.328;7.322;2023-02-19T03:48:20;98861.19;;;11.01;91.76
21594;BME280;10959;51.328;7.322;2023-02-19T03:50:53;98853.59;;;11.09;92.57
21594;BME280;10959;51.328;7.322;2023-02-19T03:53:25;98863.25;;;11.13;92.75
21594;BME280;10959;51.328;7.322;2023-02-19T03:56:01;98871.22;;;10.97;92.10
21594;BME280;10959;51.328;7.322;2023-02-19T03:58:33;98870.84;;;10.87;92.06
21594;BME280;10959;51.328;7.322;2023-02-19T04:01:06;98877.94;;;10.88;93.05
21594;BME280;10959;51.328;7.322;2023-02-19T04:03:39;98879.03;;;10.84;92.57
21594;BME280;10959;51.328;7.322;2023-02-19T04:06:10;98879.44;;;10.77;92.57
21594;BME280;10959;51.328;7.322;2023-02-19T04:08:40;98889.28;;;10.59;92.99
21594;BME280;10959;51.328;7.322;2023-02-19T04:11:08;98894.75;;;10.76;93.62
21594;BME280;10959;51.328;7.322;2023-02-19T04:13:40;98883.06;;;10.76;92.97
21594;BME280;10959;51.328;7.322;2023-02-19T04:16:12;98896.78;;;10.71;92.56
21594;BME280;10959;51.328;7.322;2023-02-19T04:18:42;98894.84;;;10.73;92.27
21594;BME280;10959;51.328;7.322;2023-02-19T04:21:10;98899.22;;;10.76;92.73
21594;BME280;10959;51.328;7.322;2023-02-19T04:23:39;98906.97;;;10.83;92.58
21594;BME280;10959;51.328;7.322;2023-02-19T04:26:07;98908.94;;;10.97;91.88
21594;BME280;10959;51.328;7.322;2023-02-19T04:28:34;98910.00;;;10.95;91.71
21594;BME280;10959;51.328;7.322;2023-02-19T04:31:03;98922.97;;;10.86;91.63
21594;BME280;10959;51.328;7.322;2023-02-19T04:33:29;98923.38;;;10.96;91.95
21594;BME280;10959;51.328;7.322;2023-02-19T04:35:57;98914.50;;;10.94;91.72
21594;BME280;10959;51.328;7.322;2023-02-19T04:38:24;98924.72;;;10.87;91.64
21594;BME280;10959;51.328;7.322;2023-02-19T04:40:50;98934.47;;;10.71;91.19
21594;BME280;10959;51.328;7.322;2023-02-19T04:43:17;98929.09;;;10.71;92.00
21594;BME280;10959;51.328;7.322;2023-02-19T04:45:44;98934.75;;;10.84;91.72
21594;BME280;10959;51.328;7.322;2023-02-19T04:48:10;98936.66;;;10.82;91.75
21594;BME280;10959;51.328;7.322;2023-02-19T04:50:37;98942.75;;;10.85;91.70
21594;BME280;10959;51.328;7.322;2023-02-19T04:53:05;98934.03;;;10.80;92.05
21594;BME280;10959;51.328;7.322;2023-02-19T04:55:36;98946.28;;;10.87;91.63
21594;BME280;10959;51.328;7.322;2023-02-19T04:58:03;98946.31;;;11.05;91.49
21594;BME280;10959;51.328;7.322;2023-02-19T05:00:29;98944.03;;;10.96;91.05
21594;BME280;10959;51.328;7.322;2023-02-19T05:02:56;98950.06;;;10.83;91.27
21594;BME280;10959;51.328;7.322;2023-02-19T05:05:22;98956.09;;;10.69;91.72
21594;BME280;10959;51.328;7.322;2023-02-19T05:07:48;98958.28;;;10.80;92.05
21594;BME280;10959;51.328;7.322;2023-02-19T05:10:16;98964.75;;;10.76;92.10
21594;BME280;10959;51.328;7.322;2023-02-19T05:12:43;98961.09;;;10.77;92.13
21594;BME280;10959;51.328;7.322;2023-02-19T05:15:09;98949.47;;;10.58;92.22
21594;BME280;10959;51.328;7.322;2023-02-19T05:17:36;98966.50;;;10.58;92.29
21594;BME280;10959;51.328;7.322;2023-02-19T05:20:03;98968.81;;;10.66;91.94
21594;BME280;10959;51.328;7.322;2023-02-19T05:22:29;98966.94;;;10.68;91.88
21594;BME280;10959;51.328;7.322;2023-02-19T05:24:56;98975.66;;;10.73;91.94
21594;BME280;10959;51.328;7.322;2023-02-19T05:27:24;98966.94;;;10.68;91.08
21594;BME280;10959;51.328;7.322;2023-02-19T05:29:50;98975.53;;;10.76;91.61
21594;BME280;10959;51.328;7.322;2023-02-19T05:32:17;98981.03;;;10.73;91.55
21594;BME280;10959;51.328;7.322;2023-02-19T05:34:43;98981.34;;;10.67;91.31
21594;BME280;10959;51.328;7.322;2023-02-19T05:37:10;98984.84;;;10.69;91.99
21594;BME280;10959;51.328;7.322;2023-02-19T05:39:36;98988.34;;;10.71;91.33
21594;BME280;10959;51.328;7.322;2023-02-19T05:42:03;98993.56;;;10.74;91.19
21594;BME280;10959;51.328;7.322;2023-02-19T05:44:31;98999.13;;;10.71;91.05
21594;BME280;10959;51.328;7.322;2023-02-19T05:46:57;99002.03;;;10.66;91.75
21594;BME280;10959;51.328;7.322;2023-02-19T05:49:23;99005.78;;;10.43;91.87
21594;BME280;10959;51.328;7.322;2023-02-19T05:51:51;99002.38;;;10.59;92.13
21594;BME280;10959;51.328;7.322;2023-02-19T05:54:17;99003.91;;;10.64;91.95
21594;BME280;10959;51.328;7.322;2023-02-19T05:56:44;99010.75;;;10.52;91.72
21594;BME280;10959;51.328;7.322;2023-02-19T05:59:14;99006.97;;;10.57;91.51
21594;BME280;10959;51.328;7.322;2023-02-19T06:01:43;99014.56;;;10.67;91.81
21594;BME280;10959;51.328;7.322;2023-02-19T06:04:10;99010.91;;;10.68;91.14
21594;BME280;10959;51.328;7.322;2023-02-19T06:06:36;99009.09;;;10.69;91.70
21594;BME280;10959;51.328;7.322;2023-02-19T06:09:03;99021.25;;;10.78;91.15
21594;BME280;10959;51.328;7.322;2023-02-19T06:11:30;99018.75;;;10.73;91.28
21594;BME280;10959;51.328;7.322;2023-02-19T06:13:56;99016.03;;;10.75;90.75
21594;BME280;10959;51.328;7.322;2023-02-19T06:16:23;99025.81;;;10.57;91.35
21594;BME280;10959;51.328;7.322;2023-02-19T06:18:51;99015.56;;;10.65;91.54
21594;BME280;10959;51.328;7.322;2023-02-19T06:21:17;99027.34;;;10.62;91.27
21594;BME280;10959;51.328;7.322;2023-02-19T06:23:44;99031.59;;;10.47;91.73
21594;BME280;10959;51.328;7.322;2023-02-19T06:26:12;99025.97;;;10.53;91.71
21594;BME280;10959;51.328;7.322;2023-02-19T06:28:40;99025.28;;;10.48;91.30
21594;BME280;10959;51.328;7.322;2023-02-19T06:31:08;99036.94;;;10.49;91.57
21594;BME280;10959;51.328;7.322;2023-02-19T06:33:35;99041.72;;;10.42;91.61
21594;BME280;10959;51.328;7.322;2023-02-19T06:36:04;99041.72;;;10.42;91.60
21594;BME280;10959;51.328;7.322;2023-02-19T06:38:31;99036.56;;;10.37;92.16
21594;BME280;10959;51.328;7.322;2023-02-19T06:40:59;99042.59;;;10.43;91.80
21594;BME280;10959;51.328;7.322;2023-02-19T06:43:26;99042.66;;;10.41;92.12
21594;BME280;10959;51.328;7.322;2023-02-19T06:45:53;99053.09;;;10.49;91.71
21594;BME280;10959;51.328;7.322;2023-02-19T06:48:19;99045.59;;;10.55;91.51
21594;BME280;10959;51.328;7.322;2023-02-19T06:50:46;99048.59;;;10.49;91.09
21594;BME280;10959;51.328;7.322;2023-02-19T06:53:14;99054.50;;;10.58;90.62
21594;BME280;10959;51.328;7.322;2023-02-19T06:55:41;99055.56;;;10.53;91.00
21594;BME280;10959;51.328;7.322;2023-02-19T06:58:07;99052.06;;;10.51;91.10
21594;BME280;10959;51.328;7.322;2023-02-19T07:00:33;99072.13;;;10.44;91.77
21594;BME280;10959;51.328;7.322;2023-02-19T07:03:00;99066.34;;;10.53;91.56
21594;BME280;10959;51.328;7.322;2023-02-19T07:05:26;99077.94;;;10.35;91.82
21594;BME280;10959;51.328;7.322;2023-02-19T07:07:53;99085.09;;;10.36;92.26
21594;BME280;10959;51.328;7.322;2023-02-19T07:10:21;99087.06;;;10.31;92.79
21594;BME280;10959;51.328;7.322;2023-02-19T07:12:47;99093.19;;;10.34;92.94
21594;BME280;10959;51.328;7.322;2023-02-19T07:15:14;99094.19;;;10.32;92.88
21594;BME280;10959;51.328;7.322;2023-02-19T07:17:40;99108.72;;;10.28;93.09
21594;BME280;10959;51.328;7.322;2023-02-19T07:20:07;99112.59;;;10.43;92.41
21594;BME280;10959;51.328;7.322;2023-02-19T07:22:33;99116.41;;;10.37;92.26
21594;BME280;10959;51.328;7.322;2023-02-19T07:25:00;99131.78;;;10.35;92.34
21594;BME280;10959;51.328;7.322;2023-02-19T07:27:28;99123.13;;;10.47;92.01
21594;BME280;10959;51.328;7.322;2023-02-19T07:29:54;99121.34;;;10.26;91.75
21594;BME280;10959;51.328;7.322;2023-02-19T07:32:21;99133.25;;;10.20;92.31
21594;BME280;10959;51.328;7.322;2023-02-19T07:34:47;99141.53;;;10.15;92.41
21594;BME280;10959;51.328;7.322;2023-02-19T07:37:13;99139.13;;;10.30;92.17
21594;BME280;10959;51.328;7.322;2023-02-19T07:39:40;99143.84;;;10.25;91.85
21594;BME280;10959;51.328;7.322;2023-02-19T07:42:06;99143.31;;;10.16;92.83
21594;BME280;10959;51.328;7.322;2023-02-19T07:44:34;99151.56;;;10.12;92.75
21594;BME280;10959;51.328;7.322;2023-02-19T07:47:00;99155.56;;;10.24;93.09
21594;BME280;10959;51.328;7.322;2023-02-19T07:49:27;99156.00;;;10.35;92.26
21594;BME280;10959;51.328;7.322;2023-02-19T07:51:53;99159.41;;;10.38;92.14
21594;BME280;10959;51.328;7.322;2023-02-19T07:54:20;99170.06;;;10.19;92.42
21594;BME280;10959;51.328;7.322;2023-02-19T07:56:46;99185.84;;;10.07;93.53
21594;BME280;10959;51.328;7.322;2023-02-19T07:59:13;99177.59;;;10.11;93.17
21594;BME280;10959;51.328;7.322;2023-02-19T08:01:41;99167.81;;;10.09;93.81
21594;BME280;10959;51.328;7.322;2023-02-19T08:04:30;99166.59;;;10.17;93.74
21594;BME280;10959;51.328;7.322;2023-02-19T08:06:57;99186.34;;;10.16;93.41
21594;BME280;10959;51.328;7.322;2023-02-19T08:09:23;99191.75;;;10.16;93.43
21594;BME280;10959;51.328;7.322;2023-02-19T08:11:50;99195.84;;;10.25;93.49
21594;BME280;10959;51.328;7.322;2023-02-19T08:14:34;99200.25;;;10.28;93.48
21594;BME280;10959;51.328;7.322;2023-02-19T08:17:02;99196.97;;;10.42;93.05
21594;BME280;10959;51.328;7.322;2023-02-19T08:19:28;99208.91;;;10.36;92.98
21594;BME280;10959;51.328;7.322;2023-02-19T08:21:55;99214.63;;;10.27;93.53
21594;BME280;10959;51.328;7.322;2023-02-19T08:24:21;99219.16;;;10.26;93.60
21594;BME280;10959;51.328;7.322;2023-02-19T08:26:48;99209.09;;;10.30;93.23
21594;BME280;10959;51.328;7.322;2023-02-19T08:29:14;99211.59;;;10.36;92.94
21594;BME280;10959;51.328;7.322;2023-02-19T08:31:41;99214.16;;;10.39;92.82
21594;BME280;10959;51.328;7.322;2023-02-19T08:34:09;99218.63;;;10.61;92.46
21594;BME280;10959;51.328;7.322;2023-02-19T08:36:36;99210.00;;;10.52;91.77
21594;BME280;10959;51.328;7.322;2023-02-19T08:39:04;99216.78;;;10.41;92.41
21594;BME280;10959;51.328;7.322;2023-02-19T08:41:30;99202.97;;;10.48;92.03
21594;BME280;10959;51.328;7.322;2023-02-19T08:43:57;99212.31;;;10.62;92.02
21594;BME280;10959;51.328;7.322;2023-02-19T08:46:23;99210.47;;;10.62;91.68
21594;BME280;10959;51.328;7.322;2023-02-19T08:48:50;99218.75;;;10.58;91.45
21594;BME280;10959;51.328;7.322;2023-02-19T08:51:19;99213.78;;;10.69;91.76
21594;BME280;10959;51.328;7.322;2023-02-19T08:53:45;99227.13;;;10.72;91.76
21594;BME280;10959;51.328;7.322;2023-02-19T08:56:13;99223.88;;;10.64;91.88
21594;BME280;10959;51.328;7.322;2023-02-19T08:58:41;99230.75;;;10.71;91.20
21594;BME280;10959;51.328;7.322;2023-02-19T09:01:09;99221.31;;;10.81;91.12
21594;BME280;10959;51.328;7.322;2023-02-19T09:03:37;99239.22;;;10.82;91.35
21594;BME280;10959;51.328;7.322;2023-02-19T09:06:04;99239.50;;;10.76;90.91
21594;BME280;10959;51.328;7.322;2023-02-19T09:08:33;99227.59;;;10.82;90.93
21594;BME280;10959;51.328;7.322;2023-02-19T09:11:00;99239.22;;;10.82;90.74
21594;BME280;10959;51.328;7.322;2023-02-19T09:13:29;99242.72;;;10.84;90.63
21594;BME280;10959;51.328;7.322;2023-02-19T09:15:56;99245.13;;;10.70;89.78
21594;BME280;10959;51.328;7.322;2023-02-19T09:18:23;99255.56;;;10.57;89.95
21594;BME280;10959;51.328;7.322;2023-02-19T09:20:51;99258.59;;;10.49;89.91
21594;BME280;10959;51.328;7.322;2023-02-19T09:23:24;99268.97;;;10.59;90.09
21594;BME280;10959;51.328;7.322;2023-02-19T09:25:57;99269.63;;;10.43;89.81
21594;BME280;10959;51.328;7.322;2023-02-19T09:28:24;99268.19;;;10.33;90.05
21594;BME280;10959;51.328;7.322;2023-02-19T09:30:51;99273.97;;;10.46;90.50
21594;BME280;10959;51.328;7.322;2023-02-19T09:33:18;99275.97;;;10.63;89.86
21594;BME280;10959;51.328;7.322;2023-02-19T09:35:45;99286.09;;;10.78;89.52
21594;BME280;10959;51.328;7.322;2023-02-19T09:38:11;99267.78;;;10.86;89.16
21594;BME280;10959;51.328;7.322;2023-02-19T09:40:38;99287.84;;;11.00;89.19
21594;BME280;10959;51.328;7.322;2023-02-19T09:43:07;99282.53;;;10.98;88.87
21594;BME280;10959;51.328;7.322;2023-02-19T09:45:38;99283.53;;;10.96;89.18
21594;BME280;10959;51.328;7.322;2023-02-19T09:48:05;99290.69;;;10.97;89.13
21594;BME280;10959;51.328;7.322;2023-02-19T09:50:38;99298.34;;;10.85;89.00
21594;BME280;10959;51.328;7.322;2023-02-19T09:53:11;99287.84;;;10.79;88.32
21594;BME280;10959;51.328;7.322;2023-02-19T09:55:42;99292.59;;;10.95;88.99
21594;BME280;10959;51.328;7.322;2023-02-19T09:58:20;99313.03;;;10.78;87.56
21594;BME280;10959;51.328;7.322;2023-02-19T10:00:50;99317.06;;;10.68;86.98
21594;BME280;10959;51.328;7.322;2023-02-19T10:03:22;99311.53;;;10.71;88.13
21594;BME280;10959;51.328;7.322;2023-02-19T10:05:50;99316.06;;;10.70;88.43
21594;BME280;10959;51.328;7.322;2023-02-19T10:08:19;99323.31;;;10.91;88.70
21594;BME280;10959;51.328;7.322;2023-02-19T10:10:46;99319.53;;;10.95;87.96
21594;BME280;10959;51.328;7.322;2023-02-19T10:13:17;99325.03;;;10.92;87.93
21594;BME280;10959;51.328;7.322;2023-02-19T10:15:47;99340.53;;;11.07;87.91
21594;BME280;10959;51.328;7.322;2023-02-19T10:18:16;99342.31;;;11.08;88.05
21594;BME280;10959;51.328;7.322;2023-02-19T10:20:44;99336.72;;;11.13;88.34
21594;BME280;10959;51.328;7.322;2023-02-19T10:23:13;99361.88;;;11.13;88.21
21594;BME280;10959;51.328;7.322;2023-02-19T10:25:43;99358.34;;;11.11;88.14
21594;BME280;10959;51.328;7.322;2023-02-19T10:28:13;99359.13;;;10.93;88.32
21594;BME280;10959;51.328;7.322;2023-02-19T10:30:42;99356.84;;;10.83;88.77
21594;BME280;10959;51.328;7.322;2023-02-19T10:33:10;99377.31;;;10.87;89.27
21594;BME280;10959;51.328;7.322;2023-02-19T10:35:51;99382.69;;;10.65;88.52
21594;BME280;10959;51.328;7.322;2023-02-19T10:38:19;99389.16;;;10.83;89.12
21594;BME280;10959;51.328;7.322;2023-02-19T10:40:48;99400.25;;;10.98;89.41
21594;BME280;10959;51.328;7.322;2023-02-19T10:43:22;99396.84;;;10.93;88.78
21594;BME280;10959;51.328;7.322;2023-02-19T10:45:57;99382.72;;;10.87;88.83
21594;BME280;10959;51.328;7.322;2023-02-19T10:48:28;99388.91;;;10.89;89.09
21594;BME280;10959;51.328;7.322;2023-02-19T10:50:58;99391.38;;;10.94;89.15
21594;BME280;10959;51.328;7.322;2023-02-19T10:53:41;99395.47;;;10.82;88.26
21594;BME280;10959;51.328;7.322;2023-02-19T10:56:11;99392.72;;;11.06;88.05
21594;BME280;10959;51.328;7.322;2023-02-19T10:58:38;99392.66;;;11.07;87.98
21594;BME280;10959;51.328;7.322;2023-02-19T11:01:16;99395.41;;;11.06;87.57
21594;BME280;10959;51.328;7.322;2023-02-19T11:03:45;99398.50;;;11.17;87.20
21594;BME280;10959;51.328;7.322;2023-02-19T11:06:13;99424.53;;;11.18;87.16
21594;BME280;10959;51.328;7.322;2023-02-19T11:08:48;99426.22;;;11.21;86.79
21594;BME280;10959;51.328;7.322;2023-02-19T11:11:36;99425.06;;;11.06;86.27
21594;BME280;10959;51.328;7.322;2023-02-19T11:14:12;99413.59;;;11.21;86.22
21594;BME280;10959;51.328;7.322;2023-02-19T11:16:44;99420.91;;;11.19;85.70
21594;BME280;10959;51.328;7.322;2023-02-19T11:19:24;99410.75;;;11.04;86.31
21594;BME280;10959;51.328;7.322;2023-02-19T11:21:52;99415.66;;;11.37;86.17
21594;BME280;10959;51.328;7.322;2023-02-19T11:24:27;99419.34;;;11.34;85.25
21594;BME280;10959;51.328;7.322;2023-02-19T11:26:55;99412.69;;;11.43;85.86
21594;BME280;10959;51.328;7.322;2023-02-19T11:29:23;99417.91;;;11.48;85.82
21594;BME280;10959;51.328;7.322;2023-02-19T11:31:54;99411.28;;;11.55;85.58
21594;BME280;10959;51.328;7.322;2023-02-19T11:34:26;99409.72;;;11.70;85.56
21594;BME280;10959;51.328;7.322;2023-02-19T11:37:07;99408.53;;;11.56;85.11
21594;BME280;10959;51.328;7.322;2023-02-19T11:39:34;99411.94;;;11.81;85.16
21594;BME280;10959;51.328;7.322;2023-02-19T11:45:05;99430.25;;;11.53;84.09
21594;BME280;10959;51.328;7.322;2023-02-19T11:50:39;99407.97;;;11.48;84.17
21594;BME280;10959;51.328;7.322;2023-02-19T11:53:16;99388.56;;;11.61;84.52
21594;BME280;10959;51.328;7.322;2023-02-19T11:55:54;99403.25;;;11.53;84.53
21594;BME280;10959;51.328;7.322;2023-02-19T11:58:38;99394.75;;;11.42;84.44
21594;BME280;10959;51.328;7.322;2023-02-19T12:01:17;99400.94;;;11.23;84.73
21594;BME280;10959;51.328;7.322;2023-02-19T12:04:18;99391.94;;;11.24;85.00
21594;BME280;10959;51.328;7.322;2023-02-19T12:06:56;99387.75;;;11.38;84.67
21594;BME280;10959;51.328;7.322;2023-02-19T12:09:56;99398.41;;;11.41;84.92
21594;BME280;10959;51.328;7.322;2023-02-19T12:12:43;99401.88;;;11.43;84.25
21594;BME280;10959;51.328;7.322;2023-02-19T12:15:32;99392.22;;;11.39;84.27
21594;BME280;10959;51.328;7.322;2023-02-19T12:18:15;99396.09;;;11.52;84.43
21594;BME280;10959;51.328;7.322;2023-02-19T12:20:53;99392.47;;;11.53;84.81
21594;BME280;10959;51.328;7.322;2023-02-19T12:23:38;99402.81;;;11.21;84.83
21594;BME280;10959;51.328;7.322;2023-02-19T12:26:16;99413.75;;;11.18;85.99
21594;BME280;10959;51.328;7.322;2023-02-19T12:29:01;99419.91;;;11.00;85.97
21594;BME280;10959;51.328;7.322;2023-02-19T12:35:10;99414.91;;;10.91;86.49
21594;BME280;10959;51.328;7.322;2023-02-19T12:37:46;99419.53;;;11.09;86.18
21594;BME280;10959;51.328;7.322;2023-02-19T12:40:25;99417.00;;;11.27;85.56
21594;BME280;10959;51.328;7.322;2023-02-19T12:43:08;99418.63;;;11.31;85.04
21594;BME280;10959;51.328;7.322;2023-02-19T12:45:40;99421.88;;;11.39;84.89
21594;BME280;10959;51.328;7.322;2023-02-19T12:48:13;99424.66;;;11.15;85.01
21594;BME280;10959;51.328;7.322;2023-02-19T12:50:44;99426.16;;;11.22;85.55
21594;BME280;10959;51.328;7.322;2023-02-19T12:53:23;99429.91;;;11.18;85.01
21594;BME280;10959;51.328;7.322;2023-02-19T12:55:54;99437.56;;;11.07;84.84
21594;BME280;10959;51.328;7.322;2023-02-19T12:58:27;99441.09;;;10.87;85.31
21594;BME280;10959;51.328;7.322;2023-02-19T13:00:56;99439.97;;;10.93;86.03
21594;BME280;10959;51.328;7.322;2023-02-19T13:03:28;99448.88;;;10.95;85.97
21594;BME280;10959;51.328;7.322;2023-02-19T13:06:00;99441.22;;;11.06;86.38
21594;BME280;10959;51.328;7.322;2023-02-19T13:08:31;99446.09;;;11.18;84.64
21594;BME280;10959;51.328;7.322;2023-02-19T13:11:03;99449.47;;;11.23;84.91
21594;BME280;10959;51.328;7.322;2023-02-19T13:13:35;99448.34;;;11.29;84.47
21594;BME280;10959;51.328;7.322;2023-02-19T13:16:08;99440.31;;;11.28;84.86
21594;BME280;10959;51.328;7.322;2023-02-19T13:18:40;99452.84;;;11.29;85.02
21594;BME280;10959;51.328;7.322;2023-02-19T13:21:09;99451.03;;;11.07;85.58
21594;BME280;10959;51.328;7.322;2023-02-19T13:23:40;99448.75;;;10.98;86.39
21594;BME280;10959;51.328;7.322;2023-02-19T13:26:44;99462.50;;;10.68;86.43